sensor_id;sensor_type;location;lat;lon;timestamp;P1;durP1;ratioP1;P2;durP2;ratioP2
29466;SDS011;60968;37.490;-122.288;2023-05-14T00:01:19;10.45;;;3.40;;
29466;SDS011;60968;37.490;-122.288;2023-05-14T00:04:19;12.60;;;3.72;;
29466;SDS011;60968;37.490;-122.288;2023-05-14T00:07:21;7.95;;;3.40;;
29466;SDS011;60968;37.490;-122.288;2023-05-14T00:10:22;10.27;;;3.35;;
29466;SDS011;60968;37.490;-122.288;2023-05-14T00:13:24;11.65;;;3.67;;
29466;SDS011;60968;37.490;-122.288;2023-05-14T00:16:25;7.05;;;3.13;;
29466;SDS011;60968;37.490;-122.288;2023-05-14T00:19:26;8.98;;;3.22;;
29466;SDS011;60968;37.490;-122.288;2023-05-14T00:22:27;11.07;;;3.35;;
29466;SDS011;60968;37.490;-122.288;2023-05-14T00:25:28;9.30;;;3.20;;
29466;SDS011;60968;37.490;-122.288;2023-05-14T00:28:29;9.85;;;3.20;;
29466;SDS011;60968;37.490;-122.288;2023-05-14T00:31:29;16.55;;;3.85;;
29466;SDS011;60968;37.490;-122.288;2023-05-14T00:34:30;9.55;;;3.25;;
29466;SDS011;60968;37.490;-122.288;2023-05-14T00:37:31;8.80;;;3.35;;
29466;SDS011;60968;37.490;-122.288;2023-05-14T00:40:32;9.75;;;3.72;;
29466;SDS011;60968;37.490;-122.288;2023-05-14T00:43:33;7.32;;;2.83;;
29466;SDS011;60968;37.490;-122.288;2023-05-14T00:46:34;11.13;;;3.17;;
29466;SDS011;60968;37.490;-122.288;2023-05-14T00:49:35;7.95;;;3.25;;
29466;SDS011;60968;37.490;-122.288;2023-05-14T00:52:36;4.38;;;3.20;;
29466;SDS011;60968;37.490;-122.288;2023-05-14T00:55:38;11.10;;;3.35;;
29466;SDS011;60968;37.490;-122.288;2023-05-14T00:58:40;7.93;;;2.80;;
29466;SDS011;60968;37.490;-122.288;2023-05-14T01:01:41;6.78;;;2.25;;
29466;SDS011;60968;37.490;-122.288;2023-05-14T01:04:42;7.57;;;2.90;;
29466;SDS011;60968;37.490;-122.288;2023-05-14T01:08:17;5.20;;;2.63;;
29466;SDS011;60968;37.490;-122.288;2023-05-14T01:11:39;7.70;;;2.55;;
29466;SDS011;60968;37.490;-122.288;2023-05-14T01:14:54;5.82;;;2.53;;
29466;SDS011;60968;37.490;-122.288;2023-05-14T01:18:05;9.83;;;2.50;;
29466;SDS011;60968;37.490;-122.288;2023-05-14T01:24:39;7.77;;;2.70;;
29466;SDS011;60968;37.490;-122.288;2023-05-14T01:30:56;10.37;;;2.10;;
29466;SDS011;60968;37.490;-122.288;2023-05-14T01:34:02;4.47;;;2.23;;
29466;SDS011;60968;37.490;-122.288;2023-05-14T01:37:05;5.70;;;2.10;;
29466;SDS011;60968;37.490;-122.288;2023-05-14T01:40:07;8.07;;;2.53;;
29466;SDS011;60968;37.490;-122.288;2023-05-14T01:43:10;5.97;;;2.17;;
29466;SDS011;60968;37.490;-122.288;2023-05-14T01:46:11;10.67;;;2.30;;
29466;SDS011;60968;37.490;-122.288;2023-05-14T01:49:11;4.67;;;2.40;;
29466;SDS011;60968;37.490;-122.288;2023-05-14T01:52:12;8.37;;;1.90;;
29466;SDS011;60968;37.490;-122.288;2023-05-14T01:55:13;6.77;;;2.17;;
29466;SDS011;60968;37.490;-122.288;2023-05-14T01:58:14;4.17;;;2.00;;
29466;SDS011;60968;37.490;-122.288;2023-05-14T02:01:15;6.43;;;2.20;;
29466;SDS011;60968;37.490;-122.288;2023-05-14T02:04:16;4.53;;;1.50;;
29466;SDS011;60968;37.490;-122.288;2023-05-14T02:07:17;5.23;;;1.73;;
29466;SDS011;60968;37.490;-122.288;2023-05-14T02:10:18;11.00;;;2.00;;
29466;SDS011;60968;37.490;-122.288;2023-05-14T02:13:18;5.10;;;1.93;;
29466;SDS011;60968;37.490;-122.288;2023-05-14T02:16:19;10.07;;;1.97;;
29466;SDS011;60968;37.490;-122.288;2023-05-14T02:19:20;4.27;;;1.60;;
29466;SDS011;60968;37.490;-122.288;2023-05-14T02:22:21;5.27;;;1.70;;
29466;SDS011;60968;37.490;-122.288;2023-05-14T02:25:22;4.40;;;1.53;;
29466;SDS011;60968;37.490;-122.288;2023-05-14T02:28:23;2.57;;;1.40;;
29466;SDS011;60968;37.490;-122.288;2023-05-14T02:31:24;7.40;;;1.60;;
29466;SDS011;60968;37.490;-122.288;2023-05-14T02:34:24;8.47;;;1.87;;
29466;SDS011;60968;37.490;-122.288;2023-05-14T02:37:25;5.47;;;1.90;;
29466;SDS011;60968;37.490;-122.288;2023-05-14T02:40:26;3.47;;;1.90;;
29466;SDS011;60968;37.490;-122.288;2023-05-14T02:43:27;4.33;;;1.73;;
29466;SDS011;60968;37.490;-122.288;2023-05-14T02:46:29;4.23;;;1.87;;
29466;SDS011;60968;37.490;-122.288;2023-05-14T02:49:30;2.80;;;1.33;;
29466;SDS011;60968;37.490;-122.288;2023-05-14T02:52:31;3.47;;;1.63;;
29466;SDS011;60968;37.490;-122.288;2023-05-14T02:55:32;4.57;;;1.47;;
29466;SDS011;60968;37.490;-122.288;2023-05-14T02:58:34;5.77;;;1.27;;
29466;SDS011;60968;37.490;-122.288;2023-05-14T03:01:35;3.63;;;1.50;;
29466;SDS011;60968;37.490;-122.288;2023-05-14T03:04:36;6.37;;;1.43;;
29466;SDS011;60968;37.490;-122.288;2023-05-14T03:07:36;5.87;;;1.43;;
29466;SDS011;60968;37.490;-122.288;2023-05-14T03:10:37;2.90;;;1.60;;
29466;SDS011;60968;37.490;-122.288;2023-05-14T03:13:38;3.23;;;1.20;;
29466;SDS011;60968;37.490;-122.288;2023-05-14T03:16:39;6.97;;;1.57;;
29466;SDS011;60968;37.490;-122.288;2023-05-14T03:19:40;2.37;;;1.30;;
29466;SDS011;60968;37.490;-122.288;2023-05-14T03:22:41;3.93;;;1.60;;
29466;SDS011;60968;37.490;-122.288;2023-05-14T03:25:42;3.77;;;1.30;;
29466;SDS011;60968;37.490;-122.288;2023-05-14T03:28:43;3.47;;;1.40;;
29466;SDS011;60968;37.490;-122.288;2023-05-14T03:31:43;3.77;;;1.20;;
29466;SDS011;60968;37.490;-122.288;2023-05-14T03:34:44;4.40;;;1.23;;
29466;SDS011;60968;37.490;-122.288;2023-05-14T03:37:45;6.40;;;1.30;;
29466;SDS011;60968;37.490;-122.288;2023-05-14T03:40:46;5.90;;;1.43;;
29466;SDS011;60968;37.490;-122.288;2023-05-14T03:43:47;7.83;;;1.40;;
29466;SDS011;60968;37.490;-122.288;2023-05-14T03:46:48;2.90;;;1.13;;
29466;SDS011;60968;37.490;-122.288;2023-05-14T03:49:49;6.30;;;1.00;;
29466;SDS011;60968;37.490;-122.288;2023-05-14T03:52:50;3.57;;;1.50;;
29466;SDS011;60968;37.490;-122.288;2023-05-14T03:55:51;6.47;;;1.57;;
29466;SDS011;60968;37.490;-122.288;2023-05-14T03:58:52;3.93;;;1.57;;
29466;SDS011;60968;37.490;-122.288;2023-05-14T04:01:53;4.37;;;1.67;;
29466;SDS011;60968;37.490;-122.288;2023-05-14T04:04:53;5.53;;;1.50;;
29466;SDS011;60968;37.490;-122.288;2023-05-14T04:07:54;9.70;;;1.50;;
29466;SDS011;60968;37.490;-122.288;2023-05-14T04:10:55;2.30;;;1.20;;
29466;SDS011;60968;37.490;-122.288;2023-05-14T04:13:56;5.77;;;1.23;;
29466;SDS011;60968;37.490;-122.288;2023-05-14T04:16:57;3.00;;;1.30;;
29466;SDS011;60968;37.490;-122.288;2023-05-14T04:19:58;3.83;;;1.27;;
29466;SDS011;60968;37.490;-122.288;2023-05-14T04:22:58;5.63;;;1.27;;
29466;SDS011;60968;37.490;-122.288;2023-05-14T04:25:59;4.80;;;1.57;;
29466;SDS011;60968;37.490;-122.288;2023-05-14T04:29:00;6.30;;;1.20;;
29466;SDS011;60968;37.490;-122.288;2023-05-14T04:32:01;3.30;;;1.20;;
29466;SDS011;60968;37.490;-122.288;2023-05-14T04:35:02;9.50;;;1.50;;
29466;SDS011;60968;37.490;-122.288;2023-05-14T04:38:03;4.40;;;2.00;;
29466;SDS011;60968;37.490;-122.288;2023-05-14T04:41:04;3.87;;;1.70;;
29466;SDS011;60968;37.490;-122.288;2023-05-14T04:44:05;4.50;;;1.40;;
29466;SDS011;60968;37.490;-122.288;2023-05-14T04:47:06;3.77;;;1.20;;
29466;SDS011;60968;37.490;-122.288;2023-05-14T04:50:07;2.33;;;1.10;;
29466;SDS011;60968;37.490;-122.288;2023-05-14T04:53:08;5.00;;;1.33;;
29466;SDS011;60968;37.490;-122.288;2023-05-14T04:56:10;5.87;;;1.20;;
29466;SDS011;60968;37.490;-122.288;2023-05-14T04:59:11;4.47;;;1.33;;
29466;SDS011;60968;37.490;-122.288;2023-05-14T05:02:12;5.53;;;1.20;;
29466;SDS011;60968;37.490;-122.288;2023-05-14T05:05:13;2.83;;;1.27;;
29466;SDS011;60968;37.490;-122.288;2023-05-14T05:08:13;5.40;;;1.50;;
29466;SDS011;60968;37.490;-122.288;2023-05-14T05:11:14;2.93;;;1.27;;
29466;SDS011;60968;37.490;-122.288;2023-05-14T05:14:15;3.60;;;1.30;;
29466;SDS011;60968;37.490;-122.288;2023-05-14T05:17:16;3.93;;;1.20;;
29466;SDS011;60968;37.490;-122.288;2023-05-14T05:20:17;4.40;;;1.03;;
29466;SDS011;60968;37.490;-122.288;2023-05-14T05:23:18;6.47;;;1.30;;
29466;SDS011;60968;37.490;-122.288;2023-05-14T05:26:19;5.27;;;1.20;;
29466;SDS011;60968;37.490;-122.288;2023-05-14T05:29:20;1.90;;;1.03;;
29466;SDS011;60968;37.490;-122.288;2023-05-14T05:32:21;4.40;;;1.40;;
29466;SDS011;60968;37.490;-122.288;2023-05-14T05:35:22;3.80;;;1.27;;
29466;SDS011;60968;37.490;-122.288;2023-05-14T05:38:23;8.43;;;1.93;;
29466;SDS011;60968;37.490;-122.288;2023-05-14T05:41:24;6.13;;;1.30;;
29466;SDS011;60968;37.490;-122.288;2023-05-14T05:44:24;4.40;;;1.70;;
29466;SDS011;60968;37.490;-122.288;2023-05-14T05:47:25;5.73;;;1.90;;
29466;SDS011;60968;37.490;-122.288;2023-05-14T05:50:26;7.30;;;2.27;;
29466;SDS011;60968;37.490;-122.288;2023-05-14T05:53:27;5.63;;;1.90;;
29466;SDS011;60968;37.490;-122.288;2023-05-14T05:56:28;4.40;;;1.53;;
29466;SDS011;60968;37.490;-122.288;2023-05-14T05:59:29;3.27;;;1.43;;
29466;SDS011;60968;37.490;-122.288;2023-05-14T06:02:29;4.80;;;1.90;;
29466;SDS011;60968;37.490;-122.288;2023-05-14T06:05:30;7.80;;;1.40;;
29466;SDS011;60968;37.490;-122.288;2023-05-14T06:08:31;5.80;;;1.80;;
29466;SDS011;60968;37.490;-122.288;2023-05-14T06:11:32;8.53;;;1.50;;
29466;SDS011;60968;37.490;-122.288;2023-05-14T06:14:33;3.73;;;1.40;;
29466;SDS011;60968;37.490;-122.288;2023-05-14T06:17:34;5.30;;;1.80;;
29466;SDS011;60968;37.490;-122.288;2023-05-14T06:20:34;10.90;;;1.60;;
29466;SDS011;60968;37.490;-122.288;2023-05-14T06:23:35;3.13;;;1.50;;
29466;SDS011;60968;37.490;-122.288;2023-05-14T06:26:36;5.27;;;1.53;;
29466;SDS011;60968;37.490;-122.288;2023-05-14T06:29:37;4.33;;;1.37;;
29466;SDS011;60968;37.490;-122.288;2023-05-14T06:32:38;4.47;;;1.67;;
29466;SDS011;60968;37.490;-122.288;2023-05-14T06:35:39;4.07;;;1.60;;
29466;SDS011;60968;37.490;-122.288;2023-05-14T06:38:39;6.60;;;1.70;;
29466;SDS011;60968;37.490;-122.288;2023-05-14T06:41:40;4.03;;;2.03;;
29466;SDS011;60968;37.490;-122.288;2023-05-14T06:44:41;3.93;;;1.90;;
29466;SDS011;60968;37.490;-122.288;2023-05-14T06:47:42;6.87;;;1.83;;
29466;SDS011;60968;37.490;-122.288;2023-05-14T06:50:46;6.73;;;2.37;;
29466;SDS011;60968;37.490;-122.288;2023-05-14T06:53:48;13.60;;;2.47;;
29466;SDS011;60968;37.490;-122.288;2023-05-14T06:56:48;5.13;;;2.10;;
29466;SDS011;60968;37.490;-122.288;2023-05-14T06:59:49;6.73;;;2.40;;
29466;SDS011;60968;37.490;-122.288;2023-05-14T07:02:50;10.17;;;2.83;;
29466;SDS011;60968;37.490;-122.288;2023-05-14T07:05:51;10.23;;;2.60;;
29466;SDS011;60968;37.490;-122.288;2023-05-14T07:08:52;8.83;;;2.87;;
29466;SDS011;60968;37.490;-122.288;2023-05-14T07:11:52;9.13;;;2.30;;
29466;SDS011;60968;37.490;-122.288;2023-05-14T07:14:53;7.90;;;2.63;;
29466;SDS011;60968;37.490;-122.288;2023-05-14T07:17:54;9.87;;;2.80;;
29466;SDS011;60968;37.490;-122.288;2023-05-14T07:20:55;10.83;;;3.03;;
29466;SDS011;60968;37.490;-122.288;2023-05-14T07:23:56;9.13;;;2.53;;
29466;SDS011;60968;37.490;-122.288;2023-05-14T07:26:57;7.70;;;2.20;;
29466;SDS011;60968;37.490;-122.288;2023-05-14T07:29:57;8.33;;;2.27;;
29466;SDS011;60968;37.490;-122.288;2023-05-14T07:32:58;6.97;;;2.50;;
29466;SDS011;60968;37.490;-122.288;2023-05-14T07:35:59;7.57;;;3.43;;
29466;SDS011;60968;37.490;-122.288;2023-05-14T07:39:00;8.03;;;2.57;;
29466;SDS011;60968;37.490;-122.288;2023-05-14T07:42:01;6.20;;;2.00;;
29466;SDS011;60968;37.490;-122.288;2023-05-14T07:45:02;13.40;;;2.90;;
29466;SDS011;60968;37.490;-122.288;2023-05-14T07:48:03;6.27;;;2.10;;
29466;SDS011;60968;37.490;-122.288;2023-05-14T07:51:04;6.50;;;2.87;;
29466;SDS011;60968;37.490;-122.288;2023-05-14T07:54:05;6.80;;;2.63;;
29466;SDS011;60968;37.490;-122.288;2023-05-14T07:57:06;6.70;;;2.80;;
29466;SDS011;60968;37.490;-122.288;2023-05-14T08:00:07;8.00;;;2.67;;
29466;SDS011;60968;37.490;-122.288;2023-05-14T08:03:08;3.80;;;1.77;;
29466;SDS011;60968;37.490;-122.288;2023-05-14T08:06:09;3.67;;;1.53;;
29466;SDS011;60968;37.490;-122.288;2023-05-14T08:09:09;8.83;;;2.27;;
29466;SDS011;60968;37.490;-122.288;2023-05-14T08:12:10;10.50;;;1.67;;
29466;SDS011;60968;37.490;-122.288;2023-05-14T08:15:11;5.83;;;1.53;;
29466;SDS011;60968;37.490;-122.288;2023-05-14T08:18:12;4.37;;;1.40;;
29466;SDS011;60968;37.490;-122.288;2023-05-14T08:21:13;8.33;;;1.50;;
29466;SDS011;60968;37.490;-122.288;2023-05-14T08:24:14;3.10;;;1.27;;
29466;SDS011;60968;37.490;-122.288;2023-05-14T08:27:15;7.97;;;1.53;;
29466;SDS011;60968;37.490;-122.288;2023-05-14T08:30:16;8.27;;;1.57;;
29466;SDS011;60968;37.490;-122.288;2023-05-14T08:33:16;2.60;;;1.63;;
29466;SDS011;60968;37.490;-122.288;2023-05-14T08:36:17;8.73;;;2.30;;
29466;SDS011;60968;37.490;-122.288;2023-05-14T08:39:18;5.07;;;2.17;;
29466;SDS011;60968;37.490;-122.288;2023-05-14T08:42:20;6.87;;;2.30;;
29466;SDS011;60968;37.490;-122.288;2023-05-14T08:45:26;7.40;;;2.40;;
29466;SDS011;60968;37.490;-122.288;2023-05-14T08:48:31;3.43;;;1.90;;
29466;SDS011;60968;37.490;-122.288;2023-05-14T08:51:32;4.10;;;1.97;;
29466;SDS011;60968;37.490;-122.288;2023-05-14T08:54:33;6.43;;;2.37;;
29466;SDS011;60968;37.490;-122.288;2023-05-14T08:57:34;5.43;;;2.50;;
29466;SDS011;60968;37.490;-122.288;2023-05-14T09:00:35;4.97;;;2.40;;
29466;SDS011;60968;37.490;-122.288;2023-05-14T09:03:36;8.83;;;2.37;;
29466;SDS011;60968;37.490;-122.288;2023-05-14T09:06:37;8.53;;;2.67;;
29466;SDS011;60968;37.490;-122.288;2023-05-14T09:09:39;5.93;;;2.73;;
29466;SDS011;60968;37.490;-122.288;2023-05-14T09:12:40;9.67;;;2.70;;
29466;SDS011;60968;37.490;-122.288;2023-05-14T09:15:41;9.23;;;2.87;;
29466;SDS011;60968;37.490;-122.288;2023-05-14T09:18:43;10.23;;;2.63;;
29466;SDS011;60968;37.490;-122.288;2023-05-14T09:21:44;7.80;;;2.90;;
29466;SDS011;60968;37.490;-122.288;2023-05-14T09:24:46;4.53;;;2.60;;
29466;SDS011;60968;37.490;-122.288;2023-05-14T09:28:07;8.27;;;2.57;;
29466;SDS011;60968;37.490;-122.288;2023-05-14T09:31:08;11.53;;;2.80;;
29466;SDS011;60968;37.490;-122.288;2023-05-14T09:34:09;9.60;;;3.00;;
29466;SDS011;60968;37.490;-122.288;2023-05-14T09:37:10;8.40;;;2.77;;
29466;SDS011;60968;37.490;-122.288;2023-05-14T09:40:11;8.07;;;2.60;;
29466;SDS011;60968;37.490;-122.288;2023-05-14T09:43:12;8.00;;;2.80;;
29466;SDS011;60968;37.490;-122.288;2023-05-14T09:46:14;7.97;;;2.43;;
29466;SDS011;60968;37.490;-122.288;2023-05-14T09:49:15;8.27;;;2.37;;
29466;SDS011;60968;37.490;-122.288;2023-05-14T09:52:19;8.43;;;2.30;;
29466;SDS011;60968;37.490;-122.288;2023-05-14T09:55:20;6.37;;;1.97;;
29466;SDS011;60968;37.490;-122.288;2023-05-14T09:58:22;7.60;;;1.67;;
29466;SDS011;60968;37.490;-122.288;2023-05-14T10:01:22;6.23;;;1.43;;
29466;SDS011;60968;37.490;-122.288;2023-05-14T10:04:24;5.97;;;1.70;;
29466;SDS011;60968;37.490;-122.288;2023-05-14T10:07:26;7.97;;;1.80;;
29466;SDS011;60968;37.490;-122.288;2023-05-14T10:10:31;4.23;;;1.40;;
29466;SDS011;60968;37.490;-122.288;2023-05-14T10:13:38;8.83;;;2.30;;
29466;SDS011;60968;37.490;-122.288;2023-05-14T10:16:42;8.03;;;1.60;;
29466;SDS011;60968;37.490;-122.288;2023-05-14T10:19:49;8.53;;;1.80;;
29466;SDS011;60968;37.490;-122.288;2023-05-14T10:22:53;6.63;;;1.80;;
29466;SDS011;60968;37.490;-122.288;2023-05-14T10:25:56;7.00;;;1.80;;
29466;SDS011;60968;37.490;-122.288;2023-05-14T10:28:58;3.37;;;1.43;;
29466;SDS011;60968;37.490;-122.288;2023-05-14T10:32:00;4.23;;;1.50;;
29466;SDS011;60968;37.490;-122.288;2023-05-14T10:35:17;5.57;;;1.83;;
29466;SDS011;60968;37.490;-122.288;2023-05-14T10:38:24;3.00;;;1.70;;
29466;SDS011;60968;37.490;-122.288;2023-05-14T10:41:29;6.20;;;1.70;;
29466;SDS011;60968;37.490;-122.288;2023-05-14T10:44:34;3.73;;;1.70;;
29466;SDS011;60968;37.490;-122.288;2023-05-14T10:47:35;8.13;;;1.73;;
29466;SDS011;60968;37.490;-122.288;2023-05-14T10:50:38;3.33;;;1.90;;
29466;SDS011;60968;37.490;-122.288;2023-05-14T10:53:39;8.73;;;2.03;;
29466;SDS011;60968;37.490;-122.288;2023-05-14T10:56:42;5.33;;;2.33;;
29466;SDS011;60968;37.490;-122.288;2023-05-14T10:59:45;6.90;;;2.00;;
29466;SDS011;60968;37.490;-122.288;2023-05-14T11:02:51;4.97;;;2.23;;
29466;SDS011;60968;37.490;-122.288;2023-05-14T11:05:55;9.60;;;2.40;;
29466;SDS011;60968;37.490;-122.288;2023-05-14T11:08:56;5.73;;;2.37;;
29466;SDS011;60968;37.490;-122.288;2023-05-14T11:12:00;8.03;;;2.40;;
29466;SDS011;60968;37.490;-122.288;2023-05-14T11:15:02;8.40;;;2.70;;
29466;SDS011;60968;37.490;-122.288;2023-05-14T11:18:04;8.17;;;2.23;;
29466;SDS011;60968;37.490;-122.288;2023-05-14T11:21:05;7.60;;;2.50;;
29466;SDS011;60968;37.490;-122.288;2023-05-14T11:24:06;6.47;;;3.00;;
29466;SDS011;60968;37.490;-122.288;2023-05-14T11:27:07;8.27;;;2.57;;
29466;SDS011;60968;37.490;-122.288;2023-05-14T11:30:13;4.17;;;2.13;;
29466;SDS011;60968;37.490;-122.288;2023-05-14T11:33:15;6.23;;;2.80;;
29466;SDS011;60968;37.490;-122.288;2023-05-14T11:36:16;10.00;;;2.70;;
29466;SDS011;60968;37.490;-122.288;2023-05-14T11:39:17;7.67;;;3.30;;
29466;SDS011;60968;37.490;-122.288;2023-05-14T11:42:19;6.27;;;2.67;;
29466;SDS011;60968;37.490;-122.288;2023-05-14T11:45:24;6.73;;;3.07;;
29466;SDS011;60968;37.490;-122.288;2023-05-14T11:48:26;9.53;;;2.90;;
29466;SDS011;60968;37.490;-122.288;2023-05-14T11:51:27;10.70;;;2.70;;
29466;SDS011;60968;37.490;-122.288;2023-05-14T11:54:30;5.47;;;3.20;;
29466;SDS011;60968;37.490;-122.288;2023-05-14T11:57:31;13.50;;;2.87;;
29466;SDS011;60968;37.490;-122.288;2023-05-14T12:00:32;7.00;;;2.37;;
29466;SDS011;60968;37.490;-122.288;2023-05-14T12:03:33;4.23;;;2.73;;
29466;SDS011;60968;37.490;-122.288;2023-05-14T12:06:34;12.30;;;4.03;;
29466;SDS011;60968;37.490;-122.288;2023-05-14T12:09:39;8.23;;;3.77;;
29466;SDS011;60968;37.490;-122.288;2023-05-14T12:12:43;8.20;;;3.50;;
29466;SDS011;60968;37.490;-122.288;2023-05-14T12:15:47;10.23;;;3.60;;
29466;SDS011;60968;37.490;-122.288;2023-05-14T12:18:57;8.67;;;3.50;;
29466;SDS011;60968;37.490;-122.288;2023-05-14T12:21:59;10.93;;;3.97;;
29466;SDS011;60968;37.490;-122.288;2023-05-14T12:25:00;11.37;;;4.50;;
29466;SDS011;60968;37.490;-122.288;2023-05-14T12:28:01;11.67;;;4.00;;
29466;SDS011;60968;37.490;-122.288;2023-05-14T12:31:12;14.77;;;4.40;;
29466;SDS011;60968;37.490;-122.288;2023-05-14T12:34:15;11.03;;;4.37;;
29466;SDS011;60968;37.490;-122.288;2023-05-14T12:37:16;6.90;;;3.80;;
29466;SDS011;60968;37.490;-122.288;2023-05-14T12:40:17;10.10;;;3.03;;
29466;SDS011;60968;37.490;-122.288;2023-05-14T12:43:18;15.73;;;4.37;;
29466;SDS011;60968;37.490;-122.288;2023-05-14T12:46:19;9.20;;;3.40;;
29466;SDS011;60968;37.490;-122.288;2023-05-14T12:49:20;11.00;;;2.80;;
29466;SDS011;60968;37.490;-122.288;2023-05-14T12:52:21;11.10;;;3.30;;
29466;SDS011;60968;37.490;-122.288;2023-05-14T12:55:21;8.23;;;3.20;;
29466;SDS011;60968;37.490;-122.288;2023-05-14T12:58:22;8.87;;;2.80;;
29466;SDS011;60968;37.490;-122.288;2023-05-14T13:01:23;12.00;;;3.20;;
29466;SDS011;60968;37.490;-122.288;2023-05-14T13:04:24;9.50;;;2.37;;
29466;SDS011;60968;37.490;-122.288;2023-05-14T13:07:25;6.03;;;2.57;;
29466;SDS011;60968;37.490;-122.288;2023-05-14T13:10:26;8.40;;;2.50;;
29466;SDS011;60968;37.490;-122.288;2023-05-14T13:13:27;6.53;;;2.20;;
29466;SDS011;60968;37.490;-122.288;2023-05-14T13:16:28;5.97;;;2.60;;
29466;SDS011;60968;37.490;-122.288;2023-05-14T13:19:29;8.43;;;3.40;;
29466;SDS011;60968;37.490;-122.288;2023-05-14T13:22:29;5.37;;;2.83;;
29466;SDS011;60968;37.490;-122.288;2023-05-14T13:25:30;7.17;;;3.10;;
29466;SDS011;60968;37.490;-122.288;2023-05-14T13:28:31;5.07;;;2.77;;
29466;SDS011;60968;37.490;-122.288;2023-05-14T13:31:32;5.40;;;2.90;;
29466;SDS011;60968;37.490;-122.288;2023-05-14T13:34:33;5.43;;;2.80;;
29466;SDS011;60968;37.490;-122.288;2023-05-14T13:37:34;6.03;;;2.67;;
29466;SDS011;60968;37.490;-122.288;2023-05-14T13:40:35;4.57;;;2.10;;
29466;SDS011;60968;37.490;-122.288;2023-05-14T13:43:36;7.50;;;3.00;;
29466;SDS011;60968;37.490;-122.288;2023-05-14T13:46:37;8.37;;;3.10;;
29466;SDS011;60968;37.490;-122.288;2023-05-14T13:49:38;8.17;;;3.10;;
29466;SDS011;60968;37.490;-122.288;2023-05-14T13:52:38;10.27;;;2.70;;
29466;SDS011;60968;37.490;-122.288;2023-05-14T13:55:39;7.13;;;2.73;;
29466;SDS011;60968;37.490;-122.288;2023-05-14T13:58:40;11.77;;;2.97;;
29466;SDS011;60968;37.490;-122.288;2023-05-14T14:01:41;6.40;;;3.00;;
29466;SDS011;60968;37.490;-122.288;2023-05-14T14:04:42;7.30;;;3.00;;
29466;SDS011;60968;37.490;-122.288;2023-05-14T14:07:43;6.83;;;2.80;;
29466;SDS011;60968;37.490;-122.288;2023-05-14T14:10:43;9.50;;;3.03;;
29466;SDS011;60968;37.490;-122.288;2023-05-14T14:13:44;5.70;;;2.80;;
29466;SDS011;60968;37.490;-122.288;2023-05-14T14:16:45;8.00;;;2.73;;
29466;SDS011;60968;37.490;-122.288;2023-05-14T14:19:46;8.10;;;2.70;;
29466;SDS011;60968;37.490;-122.288;2023-05-14T14:22:47;11.40;;;2.73;;
29466;SDS011;60968;37.490;-122.288;2023-05-14T14:25:48;5.57;;;2.33;;
29466;SDS011;60968;37.490;-122.288;2023-05-14T14:28:49;5.33;;;2.50;;
29466;SDS011;60968;37.490;-122.288;2023-05-14T14:31:50;5.33;;;2.27;;
29466;SDS011;60968;37.490;-122.288;2023-05-14T14:34:50;5.63;;;2.20;;
29466;SDS011;60968;37.490;-122.288;2023-05-14T14:37:51;5.83;;;2.50;;
29466;SDS011;60968;37.490;-122.288;2023-05-14T14:40:52;8.67;;;2.27;;
29466;SDS011;60968;37.490;-122.288;2023-05-14T14:43:53;6.03;;;2.30;;
29466;SDS011;60968;37.490;-122.288;2023-05-14T14:46:54;8.33;;;2.37;;
29466;SDS011;60968;37.490;-122.288;2023-05-14T14:49:55;6.03;;;2.40;;
29466;SDS011;60968;37.490;-122.288;2023-05-14T14:52:56;4.87;;;2.30;;
29466;SDS011;60968;37.490;-122.288;2023-05-14T14:55:57;5.27;;;2.43;;
29466;SDS011;60968;37.490;-122.288;2023-05-14T14:58:58;6.40;;;2.47;;
29466;SDS011;60968;37.490;-122.288;2023-05-14T15:02:00;5.40;;;2.40;;
29466;SDS011;60968;37.490;-122.288;2023-05-14T15:05:01;6.30;;;2.30;;
29466;SDS011;60968;37.490;-122.288;2023-05-14T15:08:02;5.70;;;2.20;;
29466;SDS011;60968;37.490;-122.288;2023-05-14T15:11:03;8.80;;;2.70;;
29466;SDS011;60968;37.490;-122.288;2023-05-14T15:14:04;8.13;;;2.70;;
29466;SDS011;60968;37.490;-122.288;2023-05-14T15:17:05;4.33;;;2.10;;
29466;SDS011;60968;37.490;-122.288;2023-05-14T15:20:06;4.80;;;2.23;;
29466;SDS011;60968;37.490;-122.288;2023-05-14T15:23:07;7.00;;;2.90;;
29466;SDS011;60968;37.490;-122.288;2023-05-14T15:26:08;6.60;;;2.60;;
29466;SDS011;60968;37.490;-122.288;2023-05-14T15:29:09;7.40;;;2.57;;
29466;SDS011;60968;37.490;-122.288;2023-05-14T15:32:10;8.13;;;2.40;;
29466;SDS011;60968;37.490;-122.288;2023-05-14T15:35:11;5.03;;;2.30;;
29466;SDS011;60968;37.490;-122.288;2023-05-14T15:38:12;3.40;;;2.07;;
29466;SDS011;60968;37.490;-122.288;2023-05-14T15:41:13;4.07;;;2.67;;
29466;SDS011;60968;37.490;-122.288;2023-05-14T15:44:14;7.65;;;3.10;;
29466;SDS011;60968;37.490;-122.288;2023-05-14T15:47:14;3.75;;;2.50;;
29466;SDS011;60968;37.490;-122.288;2023-05-14T15:50:15;9.20;;;3.10;;
29466;SDS011;60968;37.490;-122.288;2023-05-14T15:53:16;3.90;;;3.00;;
29466;SDS011;60968;37.490;-122.288;2023-05-14T15:56:17;3.72;;;2.90;;
29466;SDS011;60968;37.490;-122.288;2023-05-14T15:59:18;3.22;;;2.92;;
29466;SDS011;60968;37.490;-122.288;2023-05-14T16:02:19;3.95;;;3.55;;
29466;SDS011;60968;37.490;-122.288;2023-05-14T16:05:20;6.50;;;3.75;;
29466;SDS011;60968;37.490;-122.288;2023-05-14T16:08:20;4.00;;;3.40;;
29466;SDS011;60968;37.490;-122.288;2023-05-14T16:11:21;6.20;;;3.80;;
29466;SDS011;60968;37.490;-122.288;2023-05-14T16:14:22;7.25;;;4.28;;
29466;SDS011;60968;37.490;-122.288;2023-05-14T16:17:25;4.35;;;3.72;;
29466;SDS011;60968;37.490;-122.288;2023-05-14T16:20:26;5.50;;;4.60;;
29466;SDS011;60968;37.490;-122.288;2023-05-14T16:23:27;3.72;;;3.42;;
29466;SDS011;60968;37.490;-122.288;2023-05-14T16:26:27;4.80;;;4.28;;
29466;SDS011;60968;37.490;-122.288;2023-05-14T16:29:28;6.38;;;4.15;;
29466;SDS011;60968;37.490;-122.288;2023-05-14T16:32:29;4.90;;;4.15;;
29466;SDS011;60968;37.490;-122.288;2023-05-14T16:35:30;4.22;;;3.80;;
29466;SDS011;60968;37.490;-122.288;2023-05-14T16:38:31;5.25;;;3.60;;
29466;SDS011;60968;37.490;-122.288;2023-05-14T16:41:32;5.25;;;3.50;;
29466;SDS011;60968;37.490;-122.288;2023-05-14T16:44:33;3.78;;;3.45;;
29466;SDS011;60968;37.490;-122.288;2023-05-14T16:47:34;4.75;;;3.90;;
29466;SDS011;60968;37.490;-122.288;2023-05-14T16:50:35;5.78;;;4.32;;
29466;SDS011;60968;37.490;-122.288;2023-05-14T16:53:36;4.97;;;4.13;;
29466;SDS011;60968;37.490;-122.288;2023-05-14T16:56:37;4.50;;;4.10;;
29466;SDS011;60968;37.490;-122.288;2023-05-14T16:59:38;5.20;;;3.83;;
29466;SDS011;60968;37.490;-122.288;2023-05-14T17:02:38;5.60;;;4.07;;
29466;SDS011;60968;37.490;-122.288;2023-05-14T17:05:39;4.30;;;3.90;;
29466;SDS011;60968;37.490;-122.288;2023-05-14T17:08:40;4.85;;;4.15;;
29466;SDS011;60968;37.490;-122.288;2023-05-14T17:11:41;5.47;;;3.85;;
29466;SDS011;60968;37.490;-122.288;2023-05-14T17:14:42;7.40;;;3.65;;
29466;SDS011;60968;37.490;-122.288;2023-05-14T17:17:43;5.10;;;3.70;;
29466;SDS011;60968;37.490;-122.288;2023-05-14T17:20:44;3.92;;;3.50;;
29466;SDS011;60968;37.490;-122.288;2023-05-14T17:23:45;6.60;;;4.03;;
29466;SDS011;60968;37.490;-122.288;2023-05-14T17:26:45;4.07;;;3.70;;
29466;SDS011;60968;37.490;-122.288;2023-05-14T17:29:46;3.55;;;3.25;;
29466;SDS011;60968;37.490;-122.288;2023-05-14T17:32:47;5.63;;;3.90;;